Pagina principale
METAR-TAF:

METAR-TAF

Aeroporti :

Kunming, Cina

latitudine: 25-01N, longitudine: 102-41E, altezza: 1892 m

Osservazione

Il bollettino è stato emesso 18 minuti fa, alle 23:00 UTC
Vento 4 kt da nord-est, variando fra nord e est
Temperature 16°C
Umidità 94%
Pressione 1018 hPa
Visibilità 10 km o più
Poco nuvoloso ad un'altezza di 2300 ft
Nubi sparse ad un'altezza di 4000 ft

METAR: ZPPP 192300Z 05002MPS 010V100 9999 FEW023 SCT040 16/15 Q1018 NOSIG

Ora: 07:18 (23:18 UTC)

Previsione

Il bollettino è stato emesso 10 ore e 13 minuti fa, alle 13:05 UTC
Previsione valida dal 19 alle 18 UTC al 20 alle 18 UTC
Vento 8 kt da est/sud-est
Visibilità 10 km o più
Nubi sparse ad un'altezza di 2300 ft

TAF: ZPPP 191305Z 1918/2018 12004MPS 9999 SCT023 TX27/2008Z TN15/1923Z

Osservazioni e previsioni meteorologiche di più di 4000 aeroporti (messaggi METAR e TAF).

Le stazioni disponibili sono rappresentate dai dischi gialli e rossi sulla carta.

Puntare il mouse per vedere il nome della stazione.

Clicca sopra per visualizzare le osservazioni e previsioni meteorologiche.

Per cambiare la mappa : fare clic sui pulsanti verdi con una croce nera per ingrandire, il pulsante verde con un trattino per diminuire, o sulla freccia verde per le mappe adiacenti.


METAR-TAF: